Item Display Status Serial CT Sensor

Mooring Depth: 1 m

 

Deployed Sensor

  • Serial Number: 8804
  • NDBC Property Number: 35209
  • Start Date: 11/20/2016 (17:43:48 Z)
  • End Date: Currently Active
Water Temperature [°C]     6 entries per hour
Showing data from 6/17/2018 (23:00:00 Z) to 6/16/2018 (00:00:01 Z)
Previous Next [ Day | 3-Days | 7-Days ]
First Last
Prev [ Day | 3-Days | 7-Days ] Next
First Last

Start Time:     :
End Time:     :     
Time (in GMT) :00 :50 :40 :30 :20 :10
Previous Next [ Day | 3-Days | 7-Days ]
First Last
Prev [ Day | 3-Days | 7-Days ] Next
First Last


123 => good data
MM => data is determined as missing
-- => data not received/configured
Back to Top Back to Top
6/17/2018 23:00 to 22:10 28.352 28.347 28.344 28.335 28.332 28.327
6/17/2018 22:00 to 21:10 28.313 28.305 28.298 28.293 28.285 28.275
6/17/2018 21:00 to 20:10 28.262 28.263 28.259 28.246 28.230 28.210
6/17/2018 20:00 to 19:10 28.201 28.215 28.230 28.225 28.211 28.244
6/17/2018 19:00 to 18:10 28.284 28.302 28.299 28.290 28.279 28.287
6/17/2018 18:00 to 17:10 28.300 28.273 28.274 28.285 28.268 28.246
6/17/2018 17:00 to 16:10 28.251 28.240 28.229 28.272 28.314 28.330
6/17/2018 16:00 to 15:10 28.351 28.333 28.326 28.352 28.345 28.352
6/17/2018 15:00 to 14:10 28.357 28.354 28.358 28.350 28.358 28.363
6/17/2018 14:00 to 13:10 28.356 28.364 28.370 28.365 28.377 28.380
6/17/2018 13:00 to 12:10 28.382 28.385 28.386 28.386 28.381 28.387
6/17/2018 12:00 to 11:10 28.382 28.390 28.381 28.367 28.370 28.378
6/17/2018 11:00 to 10:10 28.371 28.375 28.392 28.389 28.400 28.407
6/17/2018 10:00 to 9:10 28.398 28.394 28.411 28.418 28.412 28.427
6/17/2018 09:00 to 8:10 28.429 28.416 28.414 28.427 28.427 28.431
6/17/2018 08:00 to 7:10 28.437 28.432 28.437 28.440 28.427 28.448
6/17/2018 07:00 to 6:10 28.451 28.452 28.458 28.461 28.458 28.456
6/17/2018 06:00 to 5:10 28.453 28.459 28.452 28.456 28.453 28.452
6/17/2018 05:00 to 4:10 28.442 28.446 28.446 28.461 28.479 28.480
6/17/2018 04:00 to 3:10 28.497 28.506 28.527 28.545 28.545 28.529
6/17/2018 03:00 to 2:10 28.523 28.519 28.524 28.534 28.560 28.547
6/17/2018 02:00 to 1:10 28.564 28.598 28.621 28.599 28.628 28.646
6/17/2018 01:00 to 0:10 28.659 28.647 28.682 28.669 28.690 28.707
6/17/2018 00:00 to 23:10 28.663 28.633 28.615 28.589 28.591 28.525
6/16/2018 23:00 to 22:10 28.557 28.550 28.559 28.546 28.548 28.522
6/16/2018 22:00 to 21:10 28.499 28.520 28.486 28.501 28.489 28.467
6/16/2018 21:00 to 20:10 28.458 28.438 28.417 28.415 28.412 28.416
6/16/2018 20:00 to 19:10 28.411 28.402 28.386 28.379 28.373 28.374
6/16/2018 19:00 to 18:10 28.362 28.346 28.330 28.346 28.325 28.330
6/16/2018 18:00 to 17:10 28.324 28.301 28.274 28.273 28.278 28.236
6/16/2018 17:00 to 16:10 28.210 28.191 28.178 28.166 28.145 28.147
6/16/2018 16:00 to 15:10 28.132 28.121 28.117 28.119 28.115 28.122
6/16/2018 15:00 to 14:10 28.121 28.119 28.128 28.131 28.126 28.140
6/16/2018 14:00 to 13:10 28.139 28.144 28.138 28.148 28.136 28.150
6/16/2018 13:00 to 12:10 28.154 28.156 28.159 28.166 28.161 28.157
6/16/2018 12:00 to 11:10 28.161 28.169 28.173 28.171 28.172 28.185
6/16/2018 11:00 to 10:10 28.188 28.197 28.195 28.201 28.209 28.209
6/16/2018 10:00 to 9:10 28.208 28.220 28.225 28.219 28.205 28.180
6/16/2018 09:00 to 8:10 28.183 28.190 28.188 28.190 28.191 28.203
6/16/2018 08:00 to 7:10 28.217 28.220 28.221 28.234 28.235 28.255
6/16/2018 07:00 to 6:10 28.288 28.291 28.294 28.290 28.276 28.284
6/16/2018 06:00 to 5:10 28.302 28.307 28.298 28.295 28.281 28.272
6/16/2018 05:00 to 4:10 28.293 28.316 28.330 28.375 28.377 28.352
6/16/2018 04:00 to 3:10 28.356 28.350 28.368 28.411 28.477 28.481
6/16/2018 03:00 to 2:10 28.486 28.448 28.474 28.506 28.442 28.443
6/16/2018 02:00 to 1:10 28.466 28.503 28.527 28.589 28.512 28.514
6/16/2018 01:00 to 0:10 28.527 28.551 28.489 28.558 28.574 28.450

 

 

 

Conductivity [S/m]     6 entries per hour
Showing data from 6/17/2018 (23:00:00 Z) to 6/16/2018 (00:00:01 Z)
Previous Next [ Day | 3-Days | 7-Days ]
First Last
Prev [ Day | 3-Days | 7-Days ] Next
First Last

Start Time:     :
End Time:     :     
Time (in GMT) :00 :50 :40 :30 :20 :10
Previous Next [ Day | 3-Days | 7-Days ]
First Last
Prev [ Day | 3-Days | 7-Days ] Next
First Last


123 => good data
MM => data is determined as missing
-- => data not received/configured
Back to Top Back to Top
6/17/2018 23:00 to 22:10 5.47080 5.46695 5.46390 5.46117 5.45890 5.45556
6/17/2018 22:00 to 21:10 5.44642 5.44231 5.44035 5.43653 5.43301 5.42895
6/17/2018 21:00 to 20:10 5.42681 5.42768 5.42771 5.42225 5.41683 5.41239
6/17/2018 20:00 to 19:10 5.40859 5.41515 5.42395 5.42420 5.42014 5.43511
6/17/2018 19:00 to 18:10 5.44523 5.45563 5.45511 5.45086 5.44927 5.45075
6/17/2018 18:00 to 17:10 5.45742 5.44392 5.44300 5.44667 5.43931 5.42555
6/17/2018 17:00 to 16:10 5.42345 5.41734 5.40564 5.43473 5.45143 5.46416
6/17/2018 16:00 to 15:10 5.47900 5.46788 5.45466 5.48660 5.48544 5.48660
6/17/2018 15:00 to 14:10 5.48700 5.48665 5.48721 5.48640 5.48760 5.48772
6/17/2018 14:00 to 13:10 5.48737 5.48812 5.48843 5.48831 5.48934 5.48987
6/17/2018 13:00 to 12:10 5.49030 5.49052 5.49073 5.49057 5.49076 5.49109
6/17/2018 12:00 to 11:10 5.48995 5.49096 5.49052 5.48840 5.48890 5.48925
6/17/2018 11:00 to 10:10 5.48875 5.48907 5.49062 5.49071 5.49193 5.49241
6/17/2018 10:00 to 9:10 5.49213 5.49195 5.49347 5.49394 5.49409 5.49525
6/17/2018 09:00 to 8:10 5.49576 5.49431 5.49416 5.49552 5.49564 5.49610
6/17/2018 08:00 to 7:10 5.49674 5.49627 5.49660 5.49719 5.49617 5.49823
6/17/2018 07:00 to 6:10 5.49869 5.49875 5.49946 5.50053 5.49975 5.49952
6/17/2018 06:00 to 5:10 5.49961 5.49990 5.49924 5.49979 5.49952 5.49931
6/17/2018 05:00 to 4:10 5.49845 5.49869 5.49964 5.50074 5.50274 5.50362
6/17/2018 04:00 to 3:10 5.50517 5.50620 5.50813 5.51043 5.51111 5.50921
6/17/2018 03:00 to 2:10 5.50838 5.50730 5.50827 5.50955 5.51191 5.51144
6/17/2018 02:00 to 1:10 5.51281 5.51666 5.51939 5.51697 5.52026 5.52311
6/17/2018 01:00 to 0:10 5.52354 5.52251 5.52585 5.52530 5.52675 5.52773
6/17/2018 00:00 to 23:10 5.52221 5.51903 5.51585 5.51400 5.51292 5.50804
6/16/2018 23:00 to 22:10 5.51018 5.50991 5.51035 5.50967 5.50936 5.50760
6/16/2018 22:00 to 21:10 5.50497 5.50744 5.50512 5.50557 5.50537 5.50202
6/16/2018 21:00 to 20:10 5.50067 5.49865 5.49623 5.49576 5.49539 5.49535
6/16/2018 20:00 to 19:10 5.49468 5.49378 5.49085 5.48979 5.48840 5.48764
6/16/2018 19:00 to 18:10 5.48704 5.48442 5.48221 5.48285 5.48074 5.48015
6/16/2018 18:00 to 17:10 5.47840 5.47669 5.47438 5.47465 5.47400 5.47034
6/16/2018 17:00 to 16:10 5.46686 5.46431 5.46227 5.46007 5.45842 5.45840
6/16/2018 16:00 to 15:10 5.45592 5.45384 5.45231 5.45163 5.45034 5.45132
6/16/2018 15:00 to 14:10 5.45140 5.45048 5.45098 5.45166 5.44989 5.45153
6/16/2018 14:00 to 13:10 5.45193 5.45129 5.45151 5.44906 5.44633 5.44678
6/16/2018 13:00 to 12:10 5.44681 5.44659 5.44681 5.44622 5.44564 5.44576
6/16/2018 12:00 to 11:10 5.44577 5.44607 5.44635 5.44576 5.44638 5.44709
6/16/2018 11:00 to 10:10 5.44729 5.44818 5.44837 5.44852 5.44884 5.44853
6/16/2018 10:00 to 9:10 5.44843 5.44940 5.44969 5.44855 5.44735 5.44549
6/16/2018 09:00 to 8:10 5.44563 5.44589 5.44591 5.44582 5.44602 5.44675
6/16/2018 08:00 to 7:10 5.44840 5.44899 5.44959 5.45130 5.45174 5.45549
6/16/2018 07:00 to 6:10 5.45819 5.45833 5.45809 5.45743 5.45574 5.45600
6/16/2018 06:00 to 5:10 5.45703 5.45736 5.45618 5.45411 5.44869 5.44725
6/16/2018 05:00 to 4:10 5.45104 5.45364 5.45420 5.45819 5.45774 5.45450
6/16/2018 04:00 to 3:10 5.45005 5.45000 5.45151 5.45867 5.46602 5.46014
6/16/2018 03:00 to 2:10 5.45890 5.45284 5.45559 5.45948 5.44814 5.45138
6/16/2018 02:00 to 1:10 5.45108 5.45716 5.46405 5.47246 5.46336 5.46380
6/16/2018 01:00 to 0:10 5.46784 5.47193 5.46492 5.47310 5.47755 5.46725

 

 

 

Salinity [psu]     6 entries per hour
Showing data from 6/17/2018 (23:00:00 Z) to 6/16/2018 (00:00:01 Z)
Previous Next [ Day | 3-Days | 7-Days ]
First Last
Prev [ Day | 3-Days | 7-Days ] Next
First Last

Start Time:     :
End Time:     :     
Time (in GMT) :00 :50 :40 :30 :20 :10
Previous Next [ Day | 3-Days | 7-Days ]
First Last
Prev [ Day | 3-Days | 7-Days ] Next
First Last


123 => good data
MM => data is determined as missing
-- => data not received/configured
Back to Top Back to Top
6/17/2018 23:00 to 22:10 33.68 33.66 33.64 33.63 33.62 33.60
6/17/2018 22:00 to 21:10 33.54 33.52 33.51 33.49 33.47 33.45
6/17/2018 21:00 to 20:10 33.44 33.45 33.45 33.42 33.40 33.38
6/17/2018 20:00 to 19:10 33.36 33.40 33.45 33.45 33.43 33.51
6/17/2018 19:00 to 18:10 33.56 33.62 33.61 33.59 33.59 33.59
6/17/2018 18:00 to 17:10 33.63 33.55 33.55 33.56 33.53 33.45
6/17/2018 17:00 to 16:10 33.43 33.39 33.32 33.49 33.58 33.65
6/17/2018 16:00 to 15:10 33.74 33.68 33.59 33.79 33.79 33.79
6/17/2018 15:00 to 14:10 33.79 33.79 33.79 33.79 33.80 33.79
6/17/2018 14:00 to 13:10 33.80 33.80 33.79 33.80 33.80 33.80
6/17/2018 13:00 to 12:10 33.80 33.80 33.80 33.80 33.80 33.80
6/17/2018 12:00 to 11:10 33.80 33.80 33.80 33.80 33.80 33.79
6/17/2018 11:00 to 10:10 33.80 33.79 33.79 33.80 33.80 33.79
6/17/2018 10:00 to 9:10 33.80 33.80 33.80 33.80 33.80 33.80
6/17/2018 09:00 to 8:10 33.80 33.80 33.80 33.80 33.80 33.80
6/17/2018 08:00 to 7:10 33.80 33.80 33.80 33.80 33.81 33.81
6/17/2018 07:00 to 6:10 33.81 33.81 33.81 33.81 33.81 33.81
6/17/2018 06:00 to 5:10 33.81 33.81 33.81 33.81 33.81 33.81
6/17/2018 05:00 to 4:10 33.81 33.81 33.82 33.81 33.82 33.82
6/17/2018 04:00 to 3:10 33.82 33.82 33.82 33.82 33.83 33.82
6/17/2018 03:00 to 2:10 33.82 33.82 33.82 33.82 33.82 33.83
6/17/2018 02:00 to 1:10 33.82 33.83 33.83 33.83 33.83 33.84
6/17/2018 01:00 to 0:10 33.83 33.83 33.83 33.84 33.83 33.83
6/17/2018 00:00 to 23:10 33.82 33.82 33.81 33.81 33.81 33.82
6/16/2018 23:00 to 22:10 33.81 33.81 33.81 33.82 33.81 33.82
6/16/2018 22:00 to 21:10 33.82 33.82 33.83 33.82 33.83 33.82
6/16/2018 21:00 to 20:10 33.82 33.82 33.81 33.81 33.81 33.81
6/16/2018 20:00 to 19:10 33.81 33.81 33.80 33.80 33.79 33.79
6/16/2018 19:00 to 18:10 33.79 33.78 33.78 33.77 33.77 33.77
6/16/2018 18:00 to 17:10 33.76 33.76 33.76 33.77 33.76 33.76
6/16/2018 17:00 to 16:10 33.76 33.75 33.75 33.74 33.75 33.74
6/16/2018 16:00 to 15:10 33.74 33.73 33.72 33.72 33.71 33.71
6/16/2018 15:00 to 14:10 33.71 33.71 33.71 33.71 33.70 33.70
6/16/2018 14:00 to 13:10 33.71 33.70 33.70 33.68 33.67 33.66
6/16/2018 13:00 to 12:10 33.66 33.66 33.66 33.65 33.65 33.65
6/16/2018 12:00 to 11:10 33.65 33.64 33.64 33.64 33.64 33.64
6/16/2018 11:00 to 10:10 33.64 33.64 33.64 33.64 33.63 33.63
6/16/2018 10:00 to 9:10 33.63 33.63 33.63 33.62 33.63 33.63
6/16/2018 09:00 to 8:10 33.63 33.63 33.63 33.63 33.63 33.62
6/16/2018 08:00 to 7:10 33.63 33.63 33.63 33.63 33.64 33.65
6/16/2018 07:00 to 6:10 33.64 33.64 33.64 33.64 33.63 33.63
6/16/2018 06:00 to 5:10 33.62 33.62 33.62 33.61 33.58 33.58
6/16/2018 05:00 to 4:10 33.59 33.59 33.59 33.58 33.58 33.57
6/16/2018 04:00 to 3:10 33.54 33.54 33.54 33.56 33.56 33.52
6/16/2018 03:00 to 2:10 33.51 33.49 33.49 33.50 33.46 33.49
6/16/2018 02:00 to 1:10 33.47 33.48 33.51 33.53 33.52 33.52
6/16/2018 01:00 to 0:10 33.54 33.55 33.55 33.55 33.57 33.59